Time,TemperatureF,DewpointF,PressureIn,WindDirection,WindDirectionDegrees,WindSpeedMPH,WindSpeedGustMPH,Humidity,HourlyPrecipIn,Conditions,Clouds,dailyrainin,SoftwareType,DateUTC
2013-03-13 00:10:00,35.5,27.0,29.90,East,89,2.0,5.0,71,0.00,,,0.00,weatherlink.com 1.10,2013-03-13 04:10:00,
2013-03-13 00:25:00,35.2,26.0,29.89,South,188,1.0,4.0,68,0.00,,,0.00,weatherlink.com 1.10,2013-03-13 04:25:00,
2013-03-13 00:40:00,35.0,26.0,29.89,SW,214,2.0,3.0,71,0.00,,,0.00,weatherlink.com 1.10,2013-03-13 04:40:00,
2013-03-13 00:55:00,34.7,25.0,29.89,ENE,69,1.0,4.0,69,0.00,,,0.00,weatherlink.com 1.10,2013-03-13 04:55:00,
2013-03-13 01:10:00,34.6,25.0,29.89,ENE,57,2.0,6.0,69,0.00,,,0.00,weatherlink.com 1.10,2013-03-13 05:10:00,
2013-03-13 01:25:00,34.2,25.0,29.89,SSE,148,2.0,5.0,69,0.00,,,0.00,weatherlink.com 1.10,2013-03-13 05:25:00,
2013-03-13 01:40:00,33.8,24.0,29.89,East,82,1.0,7.0,68,0.00,,,0.00,weatherlink.com 1.10,2013-03-13 05:40:00,
2013-03-13 01:55:00,33.7,23.0,29.89,NNE,30,1.0,10.0,66,0.00,,,0.00,weatherlink.com 1.10,2013-03-13 05:55:00,
2013-03-13 02:10:00,33.6,23.0,29.89,ESE,104,0.0,7.0,66,0.00,,,0.00,weatherlink.com 1.10,2013-03-13 06:10:00,
2013-03-13 02:25:00,33.4,23.0,29.89,ENE,76,3.0,4.0,66,0.00,,,0.00,weatherlink.com 1.10,2013-03-13 06:25:00,
2013-03-13 02:40:00,33.2,23.0,29.89,ESE,103,1.0,4.0,67,0.00,,,0.00,weatherlink.com 1.10,2013-03-13 06:40:00,
2013-03-13 02:55:00,32.9,23.0,29.88,NE,44,1.0,5.0,68,0.00,,,0.00,weatherlink.com 1.10,2013-03-13 06:55:00,
2013-03-13 03:10:00,32.9,24.0,29.88,NE,44,0.0,4.0,69,0.00,,,0.00,weatherlink.com 1.10,2013-03-13 07:10:00,
2013-03-13 03:25:00,32.8,23.0,29.87,SE,137,3.0,5.0,67,0.00,,,0.00,weatherlink.com 1.10,2013-03-13 07:25:00,
2013-03-13 03:40:00,32.8,23.0,29.87,SSW,201,2.0,8.0,67,0.00,,,0.00,weatherlink.com 1.10,2013-03-13 07:40:00,
2013-03-13 03:55:00,32.7,22.0,29.86,West,279,2.0,8.0,66,0.00,,,0.00,weatherlink.com 1.10,2013-03-13 07:55:00,
2013-03-13 04:10:00,32.7,22.0,29.86,South,174,6.0,7.0,66,0.00,,,0.00,weatherlink.com 1.10,2013-03-13 08:10:00,
2013-03-13 04:25:00,32.7,22.0,29.86,SSE,148,5.0,9.0,66,0.00,,,0.00,weatherlink.com 1.10,2013-03-13 08:25:00,
2013-03-13 04:40:00,32.8,22.0,29.86,SW,234,0.0,11.0,64,0.00,,,0.00,weatherlink.com 1.10,2013-03-13 08:40:00,
2013-03-13 04:56:00,32.7,21.0,29.86,South,189,5.0,12.0,62,0.00,,,0.00,weatherlink.com 1.10,2013-03-13 08:56:00,
2013-03-13 05:11:00,32.6,20.0,29.85,South,180,5.0,8.0,60,0.00,,,0.00,weatherlink.com 1.10,2013-03-13 09:11:00,
2013-03-13 05:26:00,32.6,20.0,29.85,South,172,3.0,8.0,60,0.00,,,0.00,weatherlink.com 1.10,2013-03-13 09:26:00,
2013-03-13 05:41:00,32.5,20.0,29.85,SSW,212,2.0,12.0,60,0.00,,,0.00,weatherlink.com 1.10,2013-03-13 09:41:00,
2013-03-13 05:56:00,32.2,20.0,29.85,South,186,7.0,9.0,62,0.00,,,0.00,weatherlink.com 1.10,2013-03-13 09:56:00,
2013-03-13 06:11:00,31.9,20.0,29.85,South,188,2.0,7.0,63,0.00,,,0.00,weatherlink.com 1.10,2013-03-13 10:11:00,
2013-03-13 07:57:00,31.7,21.0,29.86,WNW,283,6.0,10.0,64,0.00,,,0.00,weatherlink.com 1.10,2013-03-13 11:57:00,
2013-03-13 08:11:00,32.0,21.0,29.87,SSW,209,3.0,10.0,64,0.00,,,0.00,weatherlink.com 1.10,2013-03-13 12:11:00,
2013-03-13 08:26:00,32.1,21.0,29.87,NNW,331,2.0,10.0,64,0.00,,,0.00,weatherlink.com 1.10,2013-03-13 12:26:00,
2013-03-13 08:41:00,32.3,21.0,29.87,SSE,168,5.0,9.0,64,0.00,,,0.00,weatherlink.com 1.10,2013-03-13 12:41:00,
2013-03-13 09:11:00,32.6,22.0,29.87,NW,311,2.0,11.0,64,0.00,,,0.00,weatherlink.com 1.10,2013-03-13 13:11:00,
2013-03-13 09:26:00,32.8,21.0,29.88,SW,232,4.0,12.0,61,0.00,,,0.00,weatherlink.com 1.10,2013-03-13 13:26:00,
2013-03-13 09:41:00,33.3,21.0,29.88,SW,224,2.0,8.0,60,0.00,,,0.00,weatherlink.com 1.10,2013-03-13 13:41:00,
2013-03-13 09:56:00,33.4,20.0,29.88,West,276,2.0,15.0,59,0.00,,,0.00,weatherlink.com 1.10,2013-03-13 13:56:00,
2013-03-13 10:11:00,33.7,20.0,29.89,NE,56,4.0,13.0,58,0.00,,,0.00,weatherlink.com 1.10,2013-03-13 14:11:00,
2013-03-13 10:26:00,34.0,20.0,29.89,SSW,194,12.0,12.0,57,0.00,,,0.00,weatherlink.com 1.10,2013-03-13 14:26:00,
2013-03-13 10:41:00,34.1,20.0,29.89,SSW,195,4.0,11.0,56,0.00,,,0.00,weatherlink.com 1.10,2013-03-13 14:41:00,
2013-03-13 10:56:00,34.1,19.0,29.89,North,4,0.0,7.0,54,0.00,,,0.00,weatherlink.com 1.10,2013-03-13 14:56:00,
2013-03-13 11:11:00,33.9,18.0,29.89,South,173,4.0,12.0,53,0.00,,,0.00,weatherlink.com 1.10,2013-03-13 15:11:00,
2013-03-13 11:26:00,33.7,19.0,29.89,SSW,198,7.0,12.0,55,0.00,,,0.00,weatherlink.com 1.10,2013-03-13 15:26:00,
2013-03-13 11:42:00,34.9,20.0,29.89,ENE,71,5.0,10.0,54,0.00,,,0.00,weatherlink.com 1.10,2013-03-13 15:42:00,
2013-03-13 11:57:00,34.6,19.0,29.89,South,169,9.0,13.0,53,0.00,,,0.00,weatherlink.com 1.10,2013-03-13 15:57:00,
2013-03-13 12:12:00,33.8,19.0,29.89,SSW,203,2.0,14.0,54,0.00,,,0.00,weatherlink.com 1.10,2013-03-13 16:12:00,
2013-03-13 12:27:00,35.4,18.0,29.89,NW,322,8.0,22.0,50,0.00,,,0.00,weatherlink.com 1.10,2013-03-13 16:27:00,
2013-03-13 12:42:00,35.5,18.0,29.89,SSW,198,7.0,9.0,50,0.00,,,0.00,weatherlink.com 1.10,2013-03-13 16:42:00,
2013-03-13 12:57:00,35.6,18.0,29.89,SSW,206,2.0,14.0,49,0.00,,,0.00,weatherlink.com 1.10,2013-03-13 16:57:00,
2013-03-13 13:12:00,36.1,17.0,29.89,SSW,210,5.0,9.0,47,0.00,,,0.00,weatherlink.com 1.10,2013-03-13 17:12:00,
2013-03-13 13:27:00,34.4,17.0,29.89,NW,309,1.0,13.0,50,0.00,,,0.00,weatherlink.com 1.10,2013-03-13 17:27:00,
2013-03-13 13:42:00,34.2,17.0,29.88,SSW,194,2.0,12.0,49,0.00,,,0.00,weatherlink.com 1.10,2013-03-13 17:42:00,
2013-03-13 13:57:00,33.9,18.0,29.89,SSE,148,1.0,11.0,52,0.00,,,0.00,weatherlink.com 1.10,2013-03-13 17:57:00,
2013-03-13 14:12:00,35.4,19.0,29.88,South,183,2.0,5.0,51,0.00,,,0.00,weatherlink.com 1.10,2013-03-13 18:12:00,
2013-03-13 14:27:00,35.6,19.0,29.87,SSW,198,3.0,9.0,51,0.00,,,0.00,weatherlink.com 1.10,2013-03-13 18:27:00,
2013-03-13 14:42:00,35.0,17.0,29.88,SSW,196,4.0,6.0,48,0.00,,,0.00,weatherlink.com 1.10,2013-03-13 18:42:00,
2013-03-13 14:57:00,34.3,17.0,29.87,SSE,161,2.0,11.0,50,0.00,,,0.00,weatherlink.com 1.10,2013-03-13 18:57:00,
2013-03-13 15:12:00,34.3,17.0,29.88,SW,232,0.0,7.0,50,0.00,,,0.00,weatherlink.com 1.10,2013-03-13 19:12:00,
2013-03-13 15:27:00,33.4,16.0,29.88,SSW,194,0.0,11.0,50,0.00,,,0.00,weatherlink.com 1.10,2013-03-13 19:27:00,
2013-03-13 15:42:00,33.9,17.0,29.88,ENE,70,4.0,9.0,50,0.00,,,0.00,weatherlink.com 1.10,2013-03-13 19:42:00,
2013-03-13 15:57:00,33.3,16.0,29.88,South,189,9.0,10.0,49,0.00,,,0.00,weatherlink.com 1.10,2013-03-13 19:57:00,
2013-03-13 16:12:00,33.0,15.0,29.89,ENE,68,2.0,8.0,48,0.00,,,0.00,weatherlink.com 1.10,2013-03-13 20:12:00,
2013-03-13 16:27:00,32.3,15.0,29.89,South,182,10.0,13.0,50,0.00,,,0.00,weatherlink.com 1.10,2013-03-13 20:27:00,
2013-03-13 16:42:00,32.4,15.0,29.89,SSW,195,6.0,16.0,49,0.00,,,0.00,weatherlink.com 1.10,2013-03-13 20:42:00,
2013-03-13 16:57:00,31.3,16.0,29.91,ENE,71,3.0,17.0,53,0.00,,,0.00,weatherlink.com 1.10,2013-03-13 20:57:00,
2013-03-13 17:12:00,30.4,16.0,29.91,WNW,282,6.0,13.0,55,0.00,,,0.00,weatherlink.com 1.10,2013-03-13 21:12:00,
2013-03-13 17:27:00,30.4,15.0,29.91,South,174,4.0,11.0,53,0.00,,,0.00,weatherlink.com 1.10,2013-03-13 21:27:00,
2013-03-13 17:42:00,30.2,16.0,29.91,South,185,5.0,10.0,55,0.00,,,0.00,weatherlink.com 1.10,2013-03-13 21:42:00,
2013-03-13 17:58:00,29.8,16.0,29.92,South,188,0.0,12.0,56,0.00,,,0.00,weatherlink.com 1.10,2013-03-13 21:58:00,
2013-03-13 18:12:00,29.4,16.0,29.91,South,185,7.0,12.0,58,0.00,,,0.00,weatherlink.com 1.10,2013-03-13 22:12:00,
2013-03-13 18:27:00,28.9,16.0,29.91,SSW,200,11.0,15.0,58,0.00,,,0.00,weatherlink.com 1.10,2013-03-13 22:27:00,
2013-03-13 18:43:00,28.6,17.0,29.93,North,356,4.0,16.0,61,0.00,,,0.00,weatherlink.com 1.10,2013-03-13 22:43:00,
2013-03-13 18:58:00,28.4,16.0,29.93,South,176,2.0,17.0,60,0.00,,,0.00,weatherlink.com 1.10,2013-03-13 22:58:00,
2013-03-13 19:13:00,28.2,17.0,29.94,SSW,200,4.0,11.0,63,0.00,,,0.00,weatherlink.com 1.10,2013-03-13 23:13:00,
2013-03-13 19:28:00,27.9,17.0,29.95,SSE,167,5.0,15.0,64,0.00,,,0.00,weatherlink.com 1.10,2013-03-13 23:28:00,
2013-03-13 19:43:00,27.5,17.0,29.94,South,191,4.0,19.0,64,0.00,,,0.00,weatherlink.com 1.10,2013-03-13 23:43:00,
2013-03-13 19:58:00,27.3,17.0,29.95,SSE,168,7.0,17.0,65,0.00,,,0.00,weatherlink.com 1.10,2013-03-13 23:58:00,
2013-03-13 20:13:00,27.1,17.0,29.95,SSW,204,5.0,12.0,66,0.00,,,0.00,weatherlink.com 1.10,2013-03-14 00:13:00,
2013-03-13 20:28:00,26.9,17.0,29.95,South,174,4.0,11.0,66,0.00,,,0.00,weatherlink.com 1.10,2013-03-14 00:28:00,
2013-03-13 20:43:00,26.6,17.0,29.95,South,188,4.0,12.0,67,0.00,,,0.00,weatherlink.com 1.10,2013-03-14 00:43:00,
2013-03-13 20:58:00,26.3,17.0,29.95,South,185,6.0,14.0,67,0.00,,,0.00,weatherlink.com 1.10,2013-03-14 00:58:00,
2013-03-13 21:13:00,26.1,17.0,29.94,SE,132,4.0,11.0,68,0.00,,,0.00,weatherlink.com 1.10,2013-03-14 01:13:00,
2013-03-13 21:28:00,25.9,16.0,29.96,NE,35,5.0,10.0,67,0.00,,,0.00,weatherlink.com 1.10,2013-03-14 01:28:00,
2013-03-13 21:43:00,25.7,16.0,29.96,ENE,68,4.0,7.0,68,0.00,,,0.00,weatherlink.com 1.10,2013-03-14 01:43:00,
2013-03-13 21:58:00,25.3,16.0,29.96,SE,127,1.0,5.0,69,0.00,,,0.00,weatherlink.com 1.10,2013-03-14 01:58:00,
2013-03-13 22:13:00,25.0,17.0,29.96,SE,144,0.0,4.0,70,0.00,,,0.00,weatherlink.com 1.10,2013-03-14 02:13:00,
2013-03-13 22:28:00,24.5,16.0,29.96,NE,56,0.0,5.0,70,0.00,,,0.00,weatherlink.com 1.10,2013-03-14 02:28:00,
2013-03-13 22:43:00,24.0,16.0,29.96,ENE,62,0.0,6.0,71,0.00,,,0.00,weatherlink.com 1.10,2013-03-14 02:43:00,
2013-03-13 22:58:00,23.5,16.0,29.97,NNE,25,2.0,8.0,73,0.00,,,0.00,weatherlink.com 1.10,2013-03-14 02:58:00,
2013-03-13 23:13:00,23.3,16.0,29.97,NNE,30,0.0,7.0,73,0.00,,,0.00,weatherlink.com 1.10,2013-03-14 03:13:00,
2013-03-13 23:28:00,23.1,15.0,29.97,SSE,159,1.0,6.0,72,0.00,,,0.00,weatherlink.com 1.10,2013-03-14 03:28:00,
2013-03-13 23:43:00,22.9,15.0,29.97,ESE,122,3.0,5.0,72,0.00,,,0.00,weatherlink.com 1.10,2013-03-14 03:43:00,
2013-03-13 23:58:00,22.7,15.0,29.97,SSE,150,0.0,7.0,72,0.00,,,0.00,weatherlink.com 1.10,2013-03-14 03:58:00,